Time;durP1;ratioP1;P1;durP2;ratioP2;P2;SDS_P1;SDS_P2;PMS_P1;PMS_P2;Temp;Humidity;BMP_temperature;BMP_pressure;BME280_temperature;BME280_humidity;BME280_pressure;Samples;Min_cycle;Max_cycle;Signal;HPM_P1;HPM_P2
2022/06/30 00:01:59;;;;;;;2.50;1.80;;;19.60;99.90;;;;;;5056093;28;20590;-63
2022/06/30 00:04:26;;;;;;;2.88;2.08;;;19.70;99.90;;;;;;5070304;28;20204;-64
2022/06/30 00:06:54;;;;;;;2.65;1.90;;;;;;;;;;5061091;28;20346;-62
2022/06/30 00:09:22;;;;;;;2.85;1.90;;;19.50;99.90;;;;;;5046562;28;20212;-64
2022/06/30 00:11:49;;;;;;;2.53;1.75;;;19.60;99.90;;;;;;5068118;28;20228;-62
2022/06/30 00:14:16;;;;;;;4.00;2.35;;;19.60;99.90;;;;;;5044473;28;20204;-64
2022/06/30 00:16:43;;;;;;;2.40;2.00;;;19.50;99.90;;;;;;5060801;28;20621;-64
2022/06/30 00:19:10;;;;;;;1.75;1.58;;;19.50;99.90;;;;;;5057875;28;20202;-63
2022/06/30 00:21:37;;;;;;;2.47;1.83;;;19.50;99.90;;;;;;5055354;28;20204;-63
2022/06/30 00:24:04;;;;;;;4.47;3.80;;;19.50;99.90;;;;;;5027418;28;20237;-63
2022/06/30 00:26:33;;;;;;;4.43;1.90;;;20.40;99.90;;;;;;5068524;28;20683;-63
2022/06/30 00:29:00;;;;;;;2.50;2.22;;;19.50;99.90;;;;;;5052444;28;20208;-63
2022/06/30 00:31:26;;;;;;;2.75;2.15;;;19.40;99.90;;;;;;5046616;28;20949;-63
2022/06/30 00:33:53;;;;;;;3.00;1.83;;;19.40;99.90;;;;;;5072208;28;20675;-64
2022/06/30 00:36:20;;;;;;;2.08;1.90;;;19.40;99.90;;;;;;5062796;28;20669;-64
2022/06/30 00:38:47;;;;;;;3.45;2.10;;;20.10;99.90;;;;;;5046394;28;20251;-63
2022/06/30 00:41:14;;;;;;;4.07;2.22;;;19.60;99.90;;;;;;5046997;28;20981;-63
2022/06/30 00:43:46;;;;;;;4.32;2.55;;;19.40;99.90;;;;;;5070473;28;20308;-64
2022/06/30 00:46:14;;;;;;;3.15;2.03;;;19.20;99.90;;;;;;5054605;28;20221;-65
2022/06/30 00:48:42;;;;;;;2.90;2.13;;;18.90;99.90;;;;;;5064863;28;20215;-64
2022/06/30 00:51:09;;;;;;;2.38;1.98;;;19.20;99.90;;;;;;5072178;28;20197;-64
2022/06/30 00:53:39;;;;;;;5.65;2.22;;;19.10;99.90;;;;;;5036229;28;20325;-63
2022/06/30 00:56:08;;;;;;;6.10;2.42;;;19.10;99.90;;;;;;5057861;28;20663;-63
2022/06/30 00:58:38;;;;;;;3.88;2.85;;;19.00;99.90;;;;;;5060469;28;20736;-63
2022/06/30 01:01:08;;;;;;;2.65;2.40;;;18.90;99.90;;;;;;5061519;28;20196;-64
2022/06/30 01:03:35;;;;;;;3.67;2.22;;;18.90;99.90;;;;;;5055761;28;20209;-63
2022/06/30 01:06:03;;;;;;;2.67;2.22;;;18.90;99.90;;;;;;5072542;28;20197;-64
2022/06/30 01:08:30;;;;;;;3.75;2.33;;;;;;;;;;5047067;28;20205;-63
2022/06/30 01:13:42;;;;;;;5.88;2.13;;;18.80;99.90;;;;;;5055262;28;20284;-63
2022/06/30 01:16:11;;;;;;;2.65;2.42;;;18.70;99.90;;;;;;5051211;28;20215;-63
2022/06/30 01:18:38;;;;;;;5.60;2.60;;;18.70;99.90;;;;;;5050868;28;21006;-63
2022/06/30 01:21:05;;;;;;;4.88;2.40;;;18.70;99.90;;;;;;5072164;28;20192;-63
2022/06/30 01:23:33;;;;;;;2.78;2.35;;;18.70;99.90;;;;;;5061374;28;20589;-63
2022/06/30 01:26:00;;;;;;;6.32;2.55;;;18.60;99.90;;;;;;5046500;28;20224;-63
2022/06/30 01:28:27;;;;;;;3.22;2.50;;;18.60;99.90;;;;;;5034271;28;20224;-64
2022/06/30 01:30:54;;;;;;;3.58;2.15;;;18.70;99.90;;;;;;5056530;28;20209;-63
2022/06/30 01:33:20;;;;;;;2.30;2.10;;;18.60;99.90;;;;;;5060072;28;20220;-64
2022/06/30 01:35:48;;;;;;;2.40;2.20;;;;;;;;;;5046291;28;20215;-63
2022/06/30 01:38:14;;;;;;;4.10;2.30;;;18.60;99.90;;;;;;5063871;28;20231;-63
2022/06/30 01:40:43;;;;;;;3.15;2.22;;;18.50;99.90;;;;;;5023928;28;20219;-63
2022/06/30 01:43:11;;;;;;;4.97;2.28;;;18.50;99.90;;;;;;5046701;28;20771;-63
2022/06/30 01:45:39;;;;;;;2.25;1.83;;;18.50;99.90;;;;;;5041186;28;20222;-63
2022/06/30 01:48:07;;;;;;;3.35;1.80;;;18.40;99.90;;;;;;5043282;28;20231;-63
2022/06/30 01:50:35;;;;;;;3.35;2.30;;;18.40;99.90;;;;;;5050384;28;20224;-62
2022/06/30 01:53:03;;;;;;;5.32;2.05;;;18.40;99.90;;;;;;5059021;28;20713;-62
2022/06/30 01:55:30;;;;;;;3.80;1.80;;;18.30;99.90;;;;;;5068333;28;20192;-62
2022/06/30 01:57:59;;;;;;;2.63;2.22;;;18.30;99.90;;;;;;5030465;28;20203;-64
2022/06/30 02:00:27;;;;;;;2.72;2.10;;;18.30;99.90;;;;;;5046659;28;20227;-62
2022/06/30 02:02:54;;;;;;;4.28;1.90;;;18.00;99.90;;;;;;5054094;28;20200;-63
2022/06/30 02:05:21;;;;;;;3.83;2.35;;;18.20;99.90;;;;;;5059752;28;20211;-63
2022/06/30 02:07:48;;;;;;;2.65;1.95;;;18.10;99.90;;;;;;5054056;28;20223;-63
2022/06/30 02:10:18;;;;;;;3.97;2.50;;;18.10;99.90;;;;;;5061071;28;20188;-63
2022/06/30 02:12:47;;;;;;;2.95;2.55;;;18.10;99.90;;;;;;5039715;28;20362;-63
2022/06/30 02:15:19;;;;;;;3.90;2.33;;;18.40;99.90;;;;;;5060798;28;20649;-62
2022/06/30 02:17:48;;;;;;;2.35;2.10;;;18.10;99.90;;;;;;5042158;28;20208;-63
2022/06/30 02:20:18;;;;;;;3.58;2.53;;;18.10;99.90;;;;;;5042253;28;20756;-64
2022/06/30 02:22:45;;;;;;;3.10;2.53;;;18.00;99.90;;;;;;5064026;28;20216;-62
2022/06/30 02:25:14;;;;;;;3.53;2.40;;;18.00;99.90;;;;;;5059199;28;20349;-64
2022/06/30 02:27:41;;;;;;;2.40;2.20;;;18.00;99.90;;;;;;5047417;28;20634;-62
2022/06/30 02:30:09;;;;;;;3.00;2.35;;;17.90;99.90;;;;;;5044067;28;20192;-62
2022/06/30 02:32:37;;;;;;;3.55;2.38;;;18.20;99.90;;;;;;5052924;28;20238;-63
2022/06/30 02:35:05;;;;;;;2.90;2.50;;;16.00;99.90;;;;;;5061683;28;20212;-62
2022/06/30 02:37:31;;;;;;;2.40;2.20;;;18.10;99.90;;;;;;5057069;28;20207;-63
2022/06/30 02:39:58;;;;;;;5.90;2.30;;;16.50;99.90;;;;;;5049155;28;20212;-63
2022/06/30 02:42:25;;;;;;;2.70;2.15;;;17.50;99.90;;;;;;5050015;28;20216;-64
2022/06/30 02:44:52;;;;;;;2.72;2.22;;;17.50;99.90;;;;;;5036695;28;20314;-63
2022/06/30 02:47:19;;;;;;;2.63;2.42;;;17.90;99.90;;;;;;5064104;28;20220;-64
2022/06/30 02:49:47;;;;;;;2.90;2.10;;;17.90;99.90;;;;;;5048839;28;20211;-63
2022/06/30 02:52:14;;;;;;;4.80;2.40;;;17.80;99.90;;;;;;5055422;28;20215;-64
2022/06/30 02:54:40;;;;;;;3.13;2.05;;;17.80;99.90;;;;;;5045779;28;20223;-63
2022/06/30 02:57:07;;;;;;;3.78;2.45;;;17.50;99.90;;;;;;5059115;28;20246;-63
2022/06/30 02:59:34;;;;;;;2.72;2.30;;;17.70;99.90;;;;;;5035789;28;20224;-63
2022/06/30 03:02:01;;;;;;;6.13;2.13;;;17.70;99.90;;;;;;5054819;28;20211;-63
2022/06/30 03:04:28;;;;;;;6.38;2.25;;;17.70;99.90;;;;;;5048737;28;20219;-63
2022/06/30 03:06:56;;;;;;;6.15;2.50;;;17.70;99.90;;;;;;5050062;28;20204;-63
2022/06/30 03:09:24;;;;;;;3.28;2.75;;;17.60;99.90;;;;;;5051617;28;20262;-63
2022/06/30 03:11:52;;;;;;;3.45;2.53;;;17.50;99.90;;;;;;5060559;28;20205;-63
2022/06/30 03:14:19;;;;;;;2.88;2.58;;;17.50;99.90;;;;;;5048430;28;20223;-63
2022/06/30 03:16:46;;;;;;;5.78;3.30;;;17.00;99.90;;;;;;5047621;28;20200;-63
2022/06/30 03:19:12;;;;;;;6.70;3.38;;;17.50;99.90;;;;;;5046184;28;24573;-63
2022/06/30 03:21:40;;;;;;;3.85;2.75;;;17.40;99.90;;;;;;5048391;28;20204;-63
2022/06/30 03:24:09;;;;;;;4.18;2.70;;;16.90;99.90;;;;;;5062793;28;20232;-63
2022/06/30 03:26:36;;;;;;;2.63;2.42;;;17.30;99.90;;;;;;5051339;28;20208;-63
2022/06/30 03:29:04;;;;;;;3.08;2.28;;;;;;;;;;5039793;28;20674;-63
2022/06/30 03:31:31;;;;;;;2.60;2.40;;;17.20;99.90;;;;;;5045534;28;20228;-63
2022/06/30 03:33:58;;;;;;;4.25;2.80;;;;;;;;;;5062041;28;20231;-63
2022/06/30 03:36:25;;;;;;;2.92;2.30;;;17.00;99.90;;;;;;5052762;28;20203;-63
2022/06/30 03:38:52;;;;;;;2.88;2.40;;;20.10;99.90;;;;;;5043078;28;20204;-63
2022/06/30 03:41:20;;;;;;;2.83;2.60;;;17.40;99.90;;;;;;5054051;28;20708;-63
2022/06/30 03:43:47;;;;;;;5.05;2.33;;;17.40;99.90;;;;;;5060048;28;20567;-63
2022/06/30 03:46:13;;;;;;;4.13;2.60;;;17.60;99.90;;;;;;5026251;28;20323;-63
2022/06/30 03:48:41;;;;;;;2.88;2.63;;;;;;;;;;5062645;28;20212;-63
2022/06/30 03:51:08;;;;;;;3.08;2.60;;;17.20;99.90;;;;;;5050355;28;20731;-63
2022/06/30 03:53:35;;;;;;;3.22;2.20;;;;;;;;;;5040622;28;20288;-63
2022/06/30 03:56:02;;;;;;;3.92;2.53;;;17.20;99.90;;;;;;5042243;28;20773;-63
2022/06/30 03:58:30;;;;;;;3.45;2.42;;;17.20;99.90;;;;;;5058120;28;20217;-63
2022/06/30 04:00:57;;;;;;;9.00;4.05;;;17.40;99.90;;;;;;5036557;28;20213;-63
2022/06/30 04:03:24;;;;;;;6.05;3.40;;;17.30;99.90;;;;;;5042405;28;20590;-63
2022/06/30 04:05:51;;;;;;;4.38;3.33;;;17.30;99.90;;;;;;5043359;28;20216;-63
2022/06/30 04:08:18;;;;;;;4.43;3.10;;;16.70;99.90;;;;;;5048651;28;20196;-64
2022/06/30 04:10:44;;;;;;;7.22;2.50;;;17.30;99.90;;;;;;5075447;28;20196;-63
2022/06/30 04:13:11;;;;;;;4.03;2.83;;;17.40;99.90;;;;;;5073650;28;20232;-63
2022/06/30 04:15:39;;;;;;;2.97;2.67;;;17.10;99.90;;;;;;5049628;28;20204;-63
2022/06/30 04:18:06;;;;;;;4.93;2.15;;;16.50;99.90;;;;;;5037786;28;20208;-63
2022/06/30 04:20:33;;;;;;;9.02;2.72;;;17.30;99.90;;;;;;5051468;28;20248;-63
2022/06/30 04:23:00;;;;;;;4.25;2.58;;;17.40;99.90;;;;;;5042784;28;20224;-63
2022/06/30 04:25:27;;;;;;;2.70;2.50;;;17.40;99.90;;;;;;5053273;28;20895;-63
2022/06/30 04:27:58;;;;;;;2.75;2.50;;;17.40;99.90;;;;;;5048396;28;20705;-63
2022/06/30 04:33:16;;;;;;;4.63;2.60;;;;;;;;;;5039644;28;20257;-63
2022/06/30 04:35:43;;;;;;;3.85;2.65;;;;;;;;;;5060409;28;20316;-64
2022/06/30 04:38:10;;;;;;;3.10;2.60;;;17.50;99.90;;;;;;5042744;28;20212;-64
2022/06/30 04:43:21;;;;;;;3.65;2.80;;;17.70;99.90;;;;;;5056627;28;20251;-61
2022/06/30 04:45:48;;;;;;;4.13;2.53;;;17.40;99.90;;;;;;5050245;28;20213;-61
2022/06/30 04:48:17;;;;;;;3.10;2.65;;;18.00;99.90;;;;;;5047966;28;20788;-62
2022/06/30 04:50:43;;;;;;;3.95;3.03;;;17.70;99.90;;;;;;5061009;28;20638;-62
2022/06/30 04:53:10;;;;;;;2.88;2.67;;;17.80;99.90;;;;;;5057527;28;20227;-62
2022/06/30 04:55:37;;;;;;;3.00;2.70;;;17.60;99.90;;;;;;5059015;28;20224;-62
2022/06/30 04:58:04;;;;;;;5.25;3.35;;;17.90;99.90;;;;;;5043740;28;20215;-62
2022/06/30 05:00:31;;;;;;;8.07;4.10;;;17.70;99.90;;;;;;5057866;28;20201;-62
2022/06/30 05:02:57;;;;;;;11.65;3.45;;;18.10;99.90;;;;;;5037087;28;20227;-64
2022/06/30 05:05:26;;;;;;;5.25;3.40;;;18.10;99.90;;;;;;5039538;28;20238;-62
2022/06/30 05:07:53;;;;;;;3.97;2.85;;;18.10;99.90;;;;;;5048542;28;20303;-63
2022/06/30 05:10:20;;;;;;;6.00;3.15;;;18.10;99.90;;;;;;5056931;28;20672;-63
2022/06/30 05:12:47;;;;;;;5.25;3.35;;;;;;;;;;5053471;28;20227;-64
2022/06/30 05:15:14;;;;;;;3.33;3.03;;;18.40;99.90;;;;;;5055285;28;20204;-63
2022/06/30 05:17:41;;;;;;;5.15;2.90;;;18.30;99.90;;;;;;5037906;28;20292;-63
2022/06/30 05:20:09;;;;;;;3.70;2.60;;;18.40;99.90;;;;;;5064111;28;20216;-63
2022/06/30 05:22:37;;;;;;;5.22;2.80;;;18.40;99.90;;;;;;5065275;28;20964;-64
2022/06/30 05:27:49;;;;;;;3.90;2.97;;;18.50;99.90;;;;;;5066013;28;20215;-64
2022/06/30 05:30:16;;;;;;;4.47;2.50;;;18.60;99.90;;;;;;5074488;28;20223;-63
2022/06/30 05:32:43;;;;;;;9.40;3.22;;;19.40;99.90;;;;;;5066400;28;20614;-62
2022/06/30 05:35:11;;;;;;;4.03;2.90;;;18.70;99.90;;;;;;5054637;28;20640;-62
2022/06/30 05:37:39;;;;;;;4.43;2.80;;;18.70;99.90;;;;;;5075538;28;20196;-63
2022/06/30 05:40:08;;;;;;;4.43;2.50;;;18.80;99.90;;;;;;5042709;28;20246;-64
2022/06/30 05:42:35;;;;;;;3.05;2.70;;;19.10;99.90;;;;;;5058897;28;20215;-64
2022/06/30 05:45:02;;;;;;;4.10;2.45;;;;;;;;;;5067407;28;20406;-63
2022/06/30 05:47:29;;;;;;;4.47;2.67;;;18.90;99.90;;;;;;5077861;28;20196;-64
2022/06/30 05:49:56;;;;;;;3.00;2.45;;;19.00;99.90;;;;;;5052840;28;20204;-63
2022/06/30 05:52:23;;;;;;;2.88;2.30;;;19.10;99.90;;;;;;5076436;28;20440;-64
2022/06/30 05:54:51;;;;;;;3.35;2.72;;;19.20;99.90;;;;;;5060485;28;20223;-63
2022/06/30 05:57:18;;;;;;;4.82;2.63;;;19.10;99.90;;;;;;5062278;28;20666;-63
2022/06/30 05:59:45;;;;;;;2.80;2.60;;;20.80;99.90;;;;;;5053334;28;20235;-64
2022/06/30 06:02:11;;;;;;;10.73;2.78;;;19.30;99.90;;;;;;5037752;28;20227;-63
2022/06/30 06:04:38;;;;;;;3.63;2.60;;;19.30;99.90;;;;;;5037396;28;20413;-64
2022/06/30 06:07:05;;;;;;;3.08;2.55;;;19.40;99.90;;;;;;5071794;28;20199;-64
2022/06/30 06:09:32;;;;;;;4.43;2.50;;;19.20;99.90;;;;;;5051310;28;20913;-64
2022/06/30 06:12:00;;;;;;;4.25;3.03;;;19.40;99.90;;;;;;5069444;28;20192;-64
2022/06/30 06:14:27;;;;;;;3.13;2.83;;;19.70;99.90;;;;;;5039541;28;20595;-64
2022/06/30 06:16:54;;;;;;;3.30;2.90;;;19.80;99.90;;;;;;5070153;28;20184;-64
2022/06/30 06:19:21;;;;;;;5.95;3.10;;;19.80;99.90;;;;;;5038228;28;20586;-63
2022/06/30 06:21:48;;;;;;;3.83;2.53;;;19.90;99.90;;;;;;5067106;28;20211;-64
2022/06/30 06:24:15;;;;;;;3.35;2.60;;;19.80;99.90;;;;;;5031606;28;20228;-63
2022/06/30 06:26:42;;;;;;;2.95;2.50;;;20.10;99.90;;;;;;5067638;28;20208;-64
2022/06/30 06:29:10;;;;;;;4.07;2.85;;;20.00;99.90;;;;;;5055792;28;20688;-63
2022/06/30 06:31:39;;;;;;;2.70;2.50;;;19.90;99.90;;;;;;5067569;28;20197;-64
2022/06/30 06:34:07;;;;;;;4.20;2.55;;;20.20;99.90;;;;;;5057010;28;20719;-63
2022/06/30 06:36:35;;;;;;;4.85;2.50;;;20.20;99.90;;;;;;5055736;28;20204;-65
2022/06/30 06:39:01;;;;;;;3.25;2.60;;;22.70;99.90;;;;;;5068328;28;22663;-63
2022/06/30 06:41:28;;;;;;;4.72;2.50;;;20.40;99.90;;;;;;5046558;28;20204;-65
2022/06/30 06:43:55;;;;;;;3.47;2.20;;;20.50;99.90;;;;;;5065141;28;20242;-64
2022/06/30 06:46:26;;;;;;;3.88;2.85;;;20.60;99.90;;;;;;5042668;28;20208;-63
2022/06/30 06:48:55;;;;;;;3.05;2.35;;;20.60;99.90;;;;;;5071219;28;20204;-65
2022/06/30 06:51:21;;;;;;;3.70;2.42;;;20.70;99.90;;;;;;5044594;28;20294;-64
2022/06/30 06:53:48;;;;;;;3.63;3.10;;;20.80;99.90;;;;;;5066014;28;20723;-65
2022/06/30 06:56:15;;;;;;;3.13;2.30;;;18.50;99.90;;;;;;5054439;28;20480;-64
2022/06/30 06:58:42;;;;;;;2.65;2.45;;;20.80;99.90;;;;;;5068607;28;20192;-64
2022/06/30 07:01:09;;;;;;;3.63;2.72;;;20.90;99.90;;;;;;5041331;28;20697;-63
2022/06/30 07:03:37;;;;;;;2.63;2.38;;;21.00;99.90;;;;;;5059590;28;20448;-64
2022/06/30 07:06:04;;;;;;;4.00;2.63;;;21.10;99.90;;;;;;5043706;28;20199;-65
2022/06/30 07:08:31;;;;;;;2.38;2.17;;;21.10;99.90;;;;;;5050225;28;20238;-63
2022/06/30 07:10:59;;;;;;;3.13;2.30;;;21.20;99.90;;;;;;5066091;28;20231;-64
2022/06/30 07:13:26;;;;;;;2.92;2.65;;;21.20;99.90;;;;;;5052578;28;20515;-64
2022/06/30 07:15:53;;;;;;;4.38;2.47;;;21.40;99.90;;;;;;5053281;28;20192;-64
2022/06/30 07:18:21;;;;;;;4.07;2.40;;;21.40;99.90;;;;;;5064265;28;20458;-65
2022/06/30 07:20:49;;;;;;;3.83;3.28;;;21.50;99.90;;;;;;5066753;28;20723;-64
2022/06/30 07:23:16;;;;;;;2.80;2.40;;;21.60;99.90;;;;;;5036774;28;20623;-63
2022/06/30 07:25:43;;;;;;;2.83;2.60;;;22.30;99.90;;;;;;5068065;28;20215;-64
2022/06/30 07:28:10;;;;;;;4.05;2.97;;;21.60;99.90;;;;;;5052889;28;20203;-63
2022/06/30 07:30:37;;;;;;;5.43;2.80;;;21.60;99.90;;;;;;5045113;28;20205;-62
2022/06/30 07:33:04;;;;;;;2.63;2.42;;;21.60;99.90;;;;;;5055096;28;20201;-62
2022/06/30 07:35:31;;;;;;;2.88;2.38;;;21.60;99.90;;;;;;5051801;28;21267;-62
2022/06/30 07:38:00;;;;;;;3.25;2.80;;;21.70;99.90;;;;;;5064204;28;20215;-62
2022/06/30 07:40:26;;;;;;;6.88;2.90;;;21.60;99.90;;;;;;5048696;28;20204;-63
2022/06/30 07:42:55;;;;;;;4.05;2.67;;;21.70;99.90;;;;;;5055602;28;20216;-64
2022/06/30 07:45:23;;;;;;;3.70;2.78;;;21.80;99.90;;;;;;5046222;28;20204;-63
2022/06/30 07:47:51;;;;;;;3.03;2.70;;;21.70;99.90;;;;;;5047772;28;20223;-64
2022/06/30 07:50:18;;;;;;;4.43;2.83;;;22.00;99.90;;;;;;5053974;28;20192;-65
2022/06/30 07:52:45;;;;;;;2.80;2.60;;;21.80;99.90;;;;;;5059893;28;20223;-64
2022/06/30 07:55:13;;;;;;;3.17;2.75;;;21.90;99.90;;;;;;5045095;28;20670;-64
2022/06/30 07:57:42;;;;;;;3.97;3.05;;;21.90;99.90;;;;;;5056537;28;20215;-64
2022/06/30 08:00:11;;;;;;;6.53;2.60;;;22.00;99.90;;;;;;5039583;28;20220;-65
2022/06/30 08:02:38;;;;;;;2.97;2.67;;;22.00;99.90;;;;;;5058933;28;20443;-62
2022/06/30 08:05:06;;;;;;;4.60;2.80;;;22.00;99.90;;;;;;5062466;28;20217;-62
2022/06/30 08:07:32;;;;;;;6.65;3.00;;;21.80;99.90;;;;;;5063331;28;20865;-63
2022/06/30 08:09:59;;;;;;;5.57;2.60;;;21.30;99.90;;;;;;5045179;28;21829;-62
2022/06/30 08:12:28;;;;;;;3.53;2.85;;;22.00;99.90;;;;;;5058105;28;20215;-63
2022/06/30 08:14:55;;;;;;;3.85;2.58;;;;;;;;;;5071765;28;20223;-62
2022/06/30 08:17:22;;;;;;;6.20;2.70;;;22.10;99.90;;;;;;5054563;28;20980;-63
2022/06/30 08:19:49;;;;;;;3.22;2.63;;;22.20;99.90;;;;;;5060471;28;20197;-63
2022/06/30 08:22:16;;;;;;;3.55;2.78;;;22.20;99.90;;;;;;5050521;28;20216;-63
2022/06/30 08:24:43;;;;;;;4.03;2.90;;;22.20;99.90;;;;;;5069308;28;20220;-63
2022/06/30 08:27:09;;;;;;;3.38;2.63;;;22.40;99.90;;;;;;5038247;28;20772;-63
2022/06/30 08:29:37;;;;;;;4.60;2.78;;;22.30;99.90;;;;;;5042098;28;20203;-64
2022/06/30 08:32:05;;;;;;;2.97;2.65;;;22.20;99.90;;;;;;5037400;28;20448;-63
2022/06/30 08:34:32;;;;;;;4.28;3.08;;;22.20;99.90;;;;;;5054416;28;20235;-63
2022/06/30 08:36:59;;;;;;;5.00;2.45;;;22.00;99.90;;;;;;5048198;28;20654;-63
2022/06/30 08:42:13;;;;;;;4.05;2.97;;;22.30;99.90;;;;;;5044692;28;20223;-63
2022/06/30 08:44:44;;;;;;;5.22;2.50;;;22.40;99.90;;;;;;5059378;28;20204;-63
2022/06/30 08:47:12;;;;;;;3.55;2.72;;;22.50;99.90;;;;;;5055138;28;20963;-64
2022/06/30 08:49:39;;;;;;;4.22;3.17;;;22.30;99.90;;;;;;5044591;28;20204;-63
2022/06/30 08:52:08;;;;;;;2.95;2.65;;;22.40;99.90;;;;;;5046884;28;20200;-64
2022/06/30 08:54:38;;;;;;;3.42;2.67;;;22.60;99.90;;;;;;5066086;28;20701;-64
2022/06/30 08:57:07;;;;;;;7.20;3.08;;;22.40;99.90;;;;;;5031678;28;20474;-64
2022/06/30 08:59:35;;;;;;;2.75;2.42;;;23.50;99.90;;;;;;5063995;28;20609;-64
2022/06/30 09:02:03;;;;;;;6.82;2.85;;;24.30;99.90;;;;;;5039937;28;20437;-64
2022/06/30 09:04:32;;;;;;;4.25;2.70;;;22.80;99.90;;;;;;5055394;28;20216;-64
2022/06/30 09:06:59;;;;;;;2.85;2.60;;;22.80;99.90;;;;;;5032868;28;20370;-64
2022/06/30 09:09:25;;;;;;;7.05;2.63;;;22.80;99.90;;;;;;5051523;28;20223;-64
2022/06/30 09:11:54;;;;;;;2.75;2.53;;;22.60;99.90;;;;;;5058790;28;20208;-64
2022/06/30 09:14:48;;;;;;;4.25;2.42;;;22.70;99.90;;;;;;5057873;28;20436;-64
2022/06/30 09:17:18;;;;;;;3.38;2.60;;;23.00;99.90;;;;;;5021456;28;20662;-64
2022/06/30 09:19:57;;;;;;;7.45;2.90;;;22.90;99.90;;;;;;5061870;28;20969;-64
2022/06/30 09:22:27;;;;;;;5.38;2.70;;;23.30;99.90;;;;;;5071734;28;20201;-63
2022/06/30 09:25:00;;;;;;;8.82;2.75;;;23.10;99.90;;;;;;5052316;28;20196;-62
2022/06/30 09:27:29;;;;;;;5.40;2.90;;;23.10;99.90;;;;;;5034158;28;20210;-62
2022/06/30 09:30:00;;;;;;;2.97;2.55;;;23.10;99.90;;;;;;5034835;28;20234;-64
2022/06/30 09:32:28;;;;;;;8.55;2.85;;;23.30;99.90;;;;;;5056857;28;20225;-64
2022/06/30 09:35:08;;;;;;;5.88;2.78;;;23.30;99.90;;;;;;5051017;28;20274;-64
2022/06/30 09:37:35;;;;;;;3.00;2.80;;;23.40;99.90;;;;;;5073074;28;20192;-64
2022/06/30 09:40:04;;;;;;;5.97;2.60;;;23.60;99.90;;;;;;5053322;28;20779;-64
2022/06/30 09:42:40;;;;;;;3.10;2.55;;;23.40;99.90;;;;;;5030693;28;20297;-65
2022/06/30 09:45:09;;;;;;;4.00;2.45;;;23.30;99.90;;;;;;5051849;28;20203;-65
2022/06/30 09:47:39;;;;;;;3.33;2.60;;;23.40;99.90;;;;;;5068710;28;20212;-64
2022/06/30 09:50:08;;;;;;;5.90;3.08;;;23.60;99.90;;;;;;5059317;28;20207;-65
2022/06/30 09:52:35;;;;;;;2.95;2.60;;;23.70;99.90;;;;;;5065408;28;20645;-65
2022/06/30 09:55:04;;;;;;;3.83;2.88;;;23.70;99.90;;;;;;5061310;28;20228;-65
2022/06/30 09:57:33;;;;;;;3.10;2.60;;;23.70;99.90;;;;;;5051703;28;20219;-65
2022/06/30 10:00:02;;;;;;;3.55;2.67;;;23.60;99.90;;;;;;5058080;28;20705;-65
2022/06/30 10:02:34;;;;;;;5.35;2.90;;;23.60;99.90;;;;;;5039590;28;21080;-65
2022/06/30 10:05:03;;;;;;;4.72;2.90;;;23.80;99.90;;;;;;5049489;28;20231;-64
2022/06/30 10:07:34;;;;;;;5.60;2.92;;;23.80;99.90;;;;;;5060952;28;20216;-64
2022/06/30 10:10:02;;;;;;;5.15;3.78;;;23.90;99.90;;;;;;5053852;28;20350;-65
2022/06/30 10:12:29;;;;;;;5.57;2.80;;;24.10;99.90;;;;;;5037205;28;20315;-64
2022/06/30 10:14:56;;;;;;;3.45;2.83;;;24.10;99.90;;;;;;5044778;28;20216;-63
2022/06/30 10:17:31;;;;;;;2.85;2.55;;;24.20;99.90;;;;;;5049016;28;20216;-64
2022/06/30 10:20:03;;;;;;;6.85;3.00;;;24.50;99.90;;;;;;5019543;28;20405;-64
2022/06/30 10:22:31;;;;;;;3.40;3.10;;;24.20;99.90;;;;;;5061252;28;20216;-63
2022/06/30 10:24:58;;;;;;;4.03;3.17;;;24.20;99.90;;;;;;5066587;28;20222;-64
2022/06/30 10:27:27;;;;;;;4.47;2.85;;;24.40;99.90;;;;;;5037243;28;20682;-63
2022/06/30 10:29:57;;;;;;;4.45;3.30;;;24.20;99.90;;;;;;5027401;28;20205;-63
2022/06/30 10:32:40;;;;;;;3.90;2.88;;;24.20;99.90;;;;;;5061359;28;20839;-64
2022/06/30 10:35:16;;;;;;;3.47;2.92;;;24.90;99.90;;;;;;5022330;28;20890;-64
2022/06/30 10:37:52;;;;;;;5.10;2.90;;;24.40;99.90;;;;;;5057722;28;20222;-64
2022/06/30 10:40:30;;;;;;;4.32;3.28;;;24.40;99.90;;;;;;5058972;28;20205;-64
2022/06/30 10:42:58;;;;;;;4.53;2.92;;;24.40;99.90;;;;;;5028858;28;20976;-64
2022/06/30 10:45:56;;;;;;;3.40;2.90;;;24.40;99.90;;;;;;5038185;28;21343;-64
2022/06/30 10:48:24;;;;;;;3.25;2.95;;;24.60;99.90;;;;;;5018154;28;20750;-63
2022/06/30 10:50:53;;;;;;;3.08;2.78;;;;;;;;;;5066623;28;20208;-63
2022/06/30 10:53:51;;;;;;;4.65;3.30;;;24.60;99.90;;;;;;5050449;28;20876;-64
2022/06/30 10:56:19;;;;;;;6.13;3.30;;;24.90;99.90;;;;;;5054831;28;20433;-64
2022/06/30 10:59:06;;;;;;;5.55;3.00;;;24.60;99.90;;;;;;5046298;28;20214;-64
2022/06/30 11:01:34;;;;;;;3.10;2.90;;;24.70;99.90;;;;;;5043513;28;20454;-64
2022/06/30 11:04:02;;;;;;;4.55;2.85;;;24.60;99.90;;;;;;5045021;28;20929;-64
2022/06/30 11:06:58;;;;;;;4.68;3.30;;;24.50;99.90;;;;;;5010836;28;20228;-64
2022/06/30 11:10:05;;;;;;;5.13;3.30;;;24.80;99.90;;;;;;5040436;28;20338;-64
2022/06/30 11:12:53;;;;;;;5.47;3.20;;;24.80;99.90;;;;;;5052831;28;20207;-64
2022/06/30 11:15:20;;;;;;;5.13;3.33;;;24.90;99.90;;;;;;5058639;28;20633;-64
2022/06/30 11:17:48;;;;;;;3.20;2.67;;;24.80;99.90;;;;;;5026344;28;20719;-64
2022/06/30 11:20:15;;;;;;;3.50;2.88;;;25.00;99.90;;;;;;5064551;28;20200;-64
2022/06/30 11:22:43;;;;;;;3.90;3.20;;;25.00;99.90;;;;;;5050169;28;20220;-63
2022/06/30 11:27:17;;;;;;;3.35;3.05;;;25.00;99.90;;;;;;5048290;28;20250;-63
2022/06/30 11:28:00;;;;;;;3.80;3.13;;;24.90;99.90;;;;;;5062485;28;20228;-63
2022/06/30 11:30:30;;;;;;;3.50;3.20;;;25.00;99.90;;;;;;5057356;28;20215;-63
2022/06/30 11:33:01;;;;;;;3.17;2.88;;;24.90;99.90;;;;;;5032125;28;20227;-63
2022/06/30 11:35:28;;;;;;;3.58;3.28;;;24.90;99.90;;;;;;5061175;28;20820;-63
2022/06/30 11:37:55;;;;;;;4.28;2.95;;;;;;;;;;5048976;28;20227;-63
2022/06/30 11:40:22;;;;;;;3.17;2.90;;;25.10;99.90;;;;;;5044175;28;20220;-64
2022/06/30 11:42:51;;;;;;;4.32;2.88;;;25.00;99.90;;;;;;5057630;28;20220;-64
2022/06/30 11:45:21;;;;;;;3.40;2.85;;;25.10;99.90;;;;;;5067001;28;20313;-63
2022/06/30 11:47:54;;;;;;;6.32;2.90;;;24.70;99.90;;;;;;5044010;28;21025;-64
2022/06/30 11:50:23;;;;;;;2.95;2.75;;;25.10;99.90;;;;;;5067335;28;20196;-63
2022/06/30 11:52:51;;;;;;;3.70;2.63;;;25.00;99.90;;;;;;5048459;28;20215;-63
2022/06/30 11:55:18;;;;;;;3.92;2.90;;;25.10;99.90;;;;;;5058104;28;20239;-63
2022/06/30 11:57:48;;;;;;;4.88;3.08;;;25.10;99.90;;;;;;5046418;28;20341;-63
2022/06/30 12:00:17;;;;;;;3.65;3.00;;;25.10;99.90;;;;;;5056089;28;20373;-63
2022/06/30 12:02:47;;;;;;;3.20;2.90;;;25.00;99.90;;;;;;5038091;28;20227;-64
2022/06/30 12:05:16;;;;;;;3.55;3.03;;;25.10;99.90;;;;;;5013021;28;20319;-63
2022/06/30 12:07:44;;;;;;;4.15;3.10;;;25.20;99.90;;;;;;5056617;28;20703;-64
2022/06/30 12:10:14;;;;;;;3.15;2.85;;;25.20;99.90;;;;;;5053726;28;21124;-63
2022/06/30 12:12:41;;;;;;;3.83;3.00;;;25.70;99.90;;;;;;5040982;28;20284;-64
2022/06/30 12:15:12;;;;;;;5.35;3.10;;;25.30;99.90;;;;;;5065796;28;20224;-64
2022/06/30 12:17:41;;;;;;;4.00;3.60;;;25.50;99.90;;;;;;5066173;28;20224;-64
2022/06/30 12:20:12;;;;;;;4.07;3.20;;;25.30;99.90;;;;;;5043294;28;20219;-64
2022/06/30 12:22:45;;;;;;;5.57;2.95;;;25.30;99.90;;;;;;5042295;28;20251;-65
2022/06/30 12:25:13;;;;;;;2.92;2.70;;;25.10;99.90;;;;;;5053310;28;20208;-64
2022/06/30 12:27:44;;;;;;;4.00;3.25;;;25.30;99.90;;;;;;5047392;28;20236;-64
2022/06/30 12:30:13;;;;;;;4.70;2.80;;;25.40;99.90;;;;;;5054048;28;20220;-64
2022/06/30 12:32:40;;;;;;;3.50;2.53;;;25.40;99.90;;;;;;5056853;28;20287;-63
2022/06/30 12:35:11;;;;;;;5.07;3.00;;;25.50;99.90;;;;;;5039869;28;20575;-65
2022/06/30 12:37:39;;;;;;;3.60;3.30;;;25.60;99.90;;;;;;5052863;28;20311;-64
2022/06/30 12:40:09;;;;;;;4.57;3.00;;;25.40;99.90;;;;;;5040349;28;20245;-64
2022/06/30 12:42:44;;;;;;;3.08;2.35;;;25.60;99.90;;;;;;5050819;28;20207;-63
2022/06/30 12:45:38;;;;;;;5.85;2.83;;;26.60;99.90;;;;;;5059583;28;20233;-63
2022/06/30 12:48:07;;;;;;;3.33;2.95;;;25.70;99.90;;;;;;5065246;28;20228;-64
2022/06/30 12:50:38;;;;;;;6.32;3.17;;;25.70;99.90;;;;;;5052232;28;20224;-64
2022/06/30 12:53:19;;;;;;;4.55;2.90;;;25.60;99.90;;;;;;5024870;28;20220;-63
2022/06/30 12:56:09;;;;;;;3.33;3.03;;;26.90;99.90;;;;;;5027925;28;20384;-64
2022/06/30 12:58:56;;;;;;;5.45;3.53;;;25.70;99.90;;;;;;5037489;28;20239;-64
2022/06/30 13:01:25;;;;;;;3.15;2.78;;;25.90;99.90;;;;;;5040466;28;20230;-65
2022/06/30 13:03:58;;;;;;;3.72;3.30;;;25.80;99.90;;;;;;5065670;28;20584;-64
2022/06/30 13:06:28;;;;;;;4.13;3.33;;;25.80;99.90;;;;;;5034490;28;20695;-64
2022/06/30 13:08:56;;;;;;;3.70;3.25;;;25.80;99.90;;;;;;5055027;28;20201;-64
2022/06/30 13:11:25;;;;;;;3.33;3.03;;;26.00;99.90;;;;;;5053477;28;22016;-63
2022/06/30 13:13:53;;;;;;;3.47;2.97;;;26.10;99.90;;;;;;5058797;28;20204;-63